South Wheelock, Vermont
Current Conditions -  °F | °C
As of 6:54 AM on Monday 20 Oct 2014 (Local Time) from KMVL Reporting Station
Broken Clouds Broken Clouds  
Wind Chill: 36°   Ceiling: 4000
Heat Index: 36°   Visibility: 10mi
Dew Point: 27°   Wind: 3mph
Humidity: 70%   Direction: 190°S
Pressure: 29.99"   Gusts: NA
Location:  44.5541°N, 72.0612°W
Report Text: KMVL 201054Z AUTO 19003KT 10SM BKN040 02/M03 A2999 RMK AO2 SLP163 T00221028
Loading
Personal Weather Stations






























Interactive Weather Map New forecast layout! Learn more

10-Day Weather Forecast

Advertisements
Track Severe Weather on mobile